Time;durP1;ratioP1;P1;durP2;ratioP2;P2;SDS_P1;SDS_P2;PMS_P1;PMS_P2;Temp;Humidity;BMP_temperature;BMP_pressure;BME280_temperature;BME280_humidity;BME280_pressure;Samples;Min_cycle;Max_cycle;Signal;HPM_P1;HPM_P2
2023/07/12 00:00:50;;;;;;;7.57;6.45;;;;;;;-145.41;100.00;58600.66;5003359;28;20030;-77
2023/07/12 00:03:17;;;;;;;10.77;7.10;;;;;;;-145.41;100.00;58600.66;5008812;28;20033;-77
2023/07/12 00:05:43;;;;;;;10.55;7.40;;;;;;;-145.41;100.00;58600.66;5010505;28;20096;-77
2023/07/12 00:08:26;;;;;;;9.70;7.30;;;;;;;-145.41;100.00;58600.66;5008213;28;20382;-76
2023/07/12 00:10:54;;;;;;;9.77;8.05;;;;;;;-145.41;100.00;58600.66;5005199;28;20041;-77
2023/07/12 00:13:20;;;;;;;10.27;7.78;;;;;;;-145.41;100.00;58600.66;5007515;28;20037;-77
2023/07/12 00:15:47;;;;;;;10.90;7.38;;;;;;;-145.41;100.00;58600.66;5010029;28;20045;-76
2023/07/12 00:18:16;;;;;;;10.65;7.90;;;;;;;-145.41;100.00;58600.66;5003931;28;20068;-77
2023/07/12 00:20:42;;;;;;;9.00;6.78;;;;;;;-145.41;100.00;58600.66;5006423;28;20034;-77
2023/07/12 00:23:10;;;;;;;10.30;6.82;;;;;;;-145.41;100.00;58600.66;5003111;28;20432;-76
2023/07/12 00:25:35;;;;;;;9.15;6.88;;;;;;;-145.41;100.00;58600.66;5005609;28;20121;-77
2023/07/12 00:28:01;;;;;;;10.35;7.65;;;;;;;-145.41;100.00;58600.66;5008642;28;20073;-76
2023/07/12 00:30:34;;;;;;;9.85;7.40;;;;;;;-145.41;100.00;58600.66;5005889;28;20037;-76
2023/07/12 00:33:03;;;;;;;11.27;7.68;;;;;;;-145.41;100.00;58600.66;5010031;28;20034;-76
2023/07/12 00:35:30;;;;;;;11.40;7.55;;;;;;;-145.41;100.00;58600.66;5005511;28;20386;-77
2023/07/12 00:37:58;;;;;;;9.43;7.32;;;;;;;-145.41;100.00;58600.66;5005128;28;20034;-77
2023/07/12 00:40:38;;;;;;;9.32;6.93;;;;;;;-145.41;100.00;58600.66;5003421;28;20052;-77
2023/07/12 00:43:31;;;;;;;8.48;6.82;;;;;;;-145.41;100.00;58600.66;5006976;28;20497;-77
2023/07/12 00:45:59;;;;;;;9.15;6.78;;;;;;;-145.41;100.00;58600.66;5009968;28;20528;-77
2023/07/12 00:48:25;;;;;;;9.15;6.50;;;;;;;-145.41;100.00;58600.66;5004113;28;20120;-77
2023/07/12 00:50:52;;;;;;;9.90;6.88;;;;;;;-145.41;100.00;58600.66;5005294;28;20026;-77
2023/07/12 00:53:23;;;;;;;8.93;7.28;;;;;;;-145.41;100.00;58600.66;5003745;28;20396;-77
2023/07/12 00:55:59;;;;;;;8.82;6.90;;;;;;;-145.41;100.00;58600.66;5006012;28;20026;-77
2023/07/12 00:58:29;;;;;;;9.25;6.97;;;;;;;-145.41;100.00;58600.66;5010465;28;20021;-76
2023/07/12 01:00:57;;;;;;;10.00;6.95;;;;;;;-145.41;100.00;58600.66;5009294;28;20649;-77
2023/07/12 01:03:24;;;;;;;10.02;6.88;;;;;;;-145.41;100.00;58600.66;5003171;28;20104;-77
2023/07/12 01:05:50;;;;;;;9.75;6.97;;;;;;;-145.41;100.00;58600.66;5003754;28;20038;-77
2023/07/12 01:08:16;;;;;;;10.02;7.30;;;;;;;-145.41;100.00;58600.66;5006244;28;20042;-77
2023/07/12 01:10:42;;;;;;;8.45;6.55;;;;;;;-145.41;100.00;58600.66;5007667;28;20040;-77
2023/07/12 01:13:08;;;;;;;8.05;6.25;;;;;;;-145.41;100.00;58600.66;5021068;28;20041;-77
2023/07/12 01:15:35;;;;;;;11.13;7.38;;;;;;;-145.41;100.00;58600.66;5005281;28;20029;-77
2023/07/12 01:18:02;;;;;;;9.38;6.95;;;;;;;-145.41;100.00;58600.66;5002940;28;20637;-77
2023/07/12 01:20:28;;;;;;;12.30;8.35;;;;;;;-145.41;100.00;58600.66;5004099;28;20050;-77
2023/07/12 01:22:54;;;;;;;13.13;10.45;;;;;;;-145.41;100.00;58600.66;5006374;28;20089;-77
2023/07/12 01:25:45;;;;;;;10.70;8.82;;;;;;;-145.41;100.00;58600.66;5006842;28;20026;-77
2023/07/12 01:28:11;;;;;;;9.20;8.07;;;;;;;-145.41;100.00;58600.66;5024175;28;20177;-77
2023/07/12 01:30:38;;;;;;;10.05;7.82;;;;;;;-145.41;100.00;58600.66;5008922;28;20415;-76
2023/07/12 01:33:04;;;;;;;11.23;8.27;;;;;;;-145.41;100.00;58600.66;5008611;28;20493;-76
2023/07/12 01:35:30;;;;;;;9.50;7.13;;;;;;;-145.41;100.00;58600.66;5007167;28;20026;-77
2023/07/12 01:37:56;;;;;;;11.07;7.93;;;;;;;-145.41;100.00;58600.66;5002715;28;20035;-77
2023/07/12 01:40:21;;;;;;;12.13;7.78;;;;;;;-145.41;100.00;58600.66;5008967;28;20049;-77
2023/07/12 01:42:47;;;;;;;11.13;9.02;;;;;;;-145.41;100.00;58600.66;5005741;28;20042;-77
2023/07/12 01:45:12;;;;;;;10.30;7.40;;;;;;;-145.41;100.00;58600.66;5008173;28;20404;-76
2023/07/12 01:47:38;;;;;;;13.68;8.35;;;;;;;-145.41;100.00;58600.66;5007824;28;20133;-77
2023/07/12 01:50:04;;;;;;;11.80;8.30;;;;;;;-145.41;100.00;58600.66;5005854;28;20038;-77
2023/07/12 01:52:29;;;;;;;10.40;6.47;;;;;;;-145.41;100.00;58600.66;5007354;28;20049;-77
2023/07/12 01:54:55;;;;;;;12.63;9.52;;;;;;;-145.41;100.00;58600.66;5007956;28;20478;-77
2023/07/12 01:57:20;;;;;;;12.02;9.20;;;;;;;-145.41;100.00;58600.66;5012654;28;20095;-77
2023/07/12 01:59:45;;;;;;;12.95;11.02;;;;;;;-145.41;100.00;58600.66;5010044;28;20125;-77
2023/07/12 02:02:11;;;;;;;10.93;9.50;;;;;;;-145.41;100.00;58600.66;4996517;28;20077;-77
2023/07/12 02:04:37;;;;;;;10.95;8.23;;;;;;;-145.41;100.00;58600.66;5012516;28;20038;-77
2023/07/12 02:07:03;;;;;;;11.70;9.45;;;;;;;-145.41;100.00;58600.66;5012499;28;20531;-77
2023/07/12 02:09:34;;;;;;;13.65;10.30;;;;;;;-145.41;100.00;58600.66;5017982;28;20068;-77
2023/07/12 02:12:01;;;;;;;12.32;8.52;;;;;;;-145.41;100.00;58600.66;5007874;28;20476;-77
2023/07/12 02:14:32;;;;;;;10.52;7.72;;;;;;;-145.41;100.00;58600.66;5009117;28;20389;-77
2023/07/12 02:16:57;;;;;;;11.27;8.95;;;;;;;-145.41;100.00;58600.66;5012052;28;20034;-77
2023/07/12 02:19:23;;;;;;;11.18;8.25;;;;;;;-145.41;100.00;58600.66;5008746;28;20554;-77
2023/07/12 02:21:48;;;;;;;13.23;8.50;;;;;;;-145.41;100.00;58600.66;5010589;28;20069;-77
2023/07/12 02:24:13;;;;;;;13.40;6.88;;;;;;;-145.41;100.00;58600.66;5013436;28;20026;-77
2023/07/12 02:26:41;;;;;;;10.60;7.15;;;;;;;-145.41;100.00;58600.66;5011476;28;20105;-77
2023/07/12 02:29:07;;;;;;;8.93;7.10;;;;;;;-145.41;100.00;58600.66;5008804;28;20042;-77
2023/07/12 02:31:34;;;;;;;11.40;7.43;;;;;;;-145.41;100.00;58600.66;5012071;28;20501;-77
2023/07/12 02:33:59;;;;;;;10.25;7.03;;;;;;;-145.41;100.00;58600.66;5012051;28;20175;-77
2023/07/12 02:36:25;;;;;;;12.63;8.90;;;;;;;-145.41;100.00;58600.66;5027512;28;20068;-77
2023/07/12 02:38:50;;;;;;;14.48;7.63;;;;;;;-145.41;100.00;58600.66;5011216;28;20038;-77
2023/07/12 02:41:17;;;;;;;12.95;6.55;;;;;;;-145.41;100.00;58600.66;5011532;28;20038;-77
2023/07/12 02:43:43;;;;;;;11.38;6.43;;;;;;;-145.41;100.00;58600.66;5011982;28;20068;-77
2023/07/12 02:46:09;;;;;;;10.18;5.82;;;;;;;-145.41;100.00;58600.66;5012502;28;20050;-77
2023/07/12 02:48:35;;;;;;;12.70;5.18;;;;;;;-145.41;100.00;58600.66;5012832;28;20080;-77
2023/07/12 02:51:00;;;;;;;7.35;5.22;;;;;;;-145.41;100.00;58600.66;5009861;28;20116;-77
2023/07/12 02:53:28;;;;;;;8.77;5.97;;;;;;;-145.41;100.00;58600.66;5012711;28;20164;-77
2023/07/12 02:55:54;;;;;;;10.93;4.85;;;;;;;-145.41;100.00;58600.66;5012660;28;20025;-77
2023/07/12 02:58:19;;;;;;;10.63;5.30;;;;;;;-145.41;100.00;58600.66;5012078;28;20397;-77
2023/07/12 03:00:45;;;;;;;8.82;6.05;;;;;;;-145.41;100.00;58600.66;5012009;28;20041;-77
2023/07/12 03:03:10;;;;;;;11.68;5.10;;;;;;;-145.41;100.00;58600.66;5011819;28;20030;-78
2023/07/12 03:05:38;;;;;;;13.45;4.93;;;;;;;-145.41;100.00;58600.66;5012603;28;20052;-77
2023/07/12 03:08:03;;;;;;;6.68;3.92;;;;;;;-145.41;100.00;58600.66;5009403;28;20036;-77
2023/07/12 03:10:30;;;;;;;10.30;4.07;;;;;;;-145.41;100.00;58600.66;5003409;28;20042;-77
2023/07/12 03:12:55;;;;;;;7.53;4.10;;;;;;;-145.41;100.00;58600.66;5010209;28;20049;-77
2023/07/12 03:15:21;;;;;;;6.20;3.97;;;;;;;-145.41;100.00;58600.66;5004973;28;20026;-77
2023/07/12 03:17:46;;;;;;;8.52;4.30;;;;;;;-145.41;100.00;58600.66;5012085;28;20065;-77
2023/07/12 03:20:12;;;;;;;6.68;3.38;;;;;;;-145.41;100.00;58600.66;5011504;28;20523;-77
2023/07/12 03:22:37;;;;;;;6.13;3.60;;;;;;;-145.41;100.00;58600.66;5011941;28;20038;-77
2023/07/12 03:25:03;;;;;;;4.60;3.05;;;;;;;-145.41;100.00;58600.66;5010340;28;20487;-77
2023/07/12 03:27:28;;;;;;;10.57;2.95;;;;;;;-145.41;100.00;58600.66;5011949;28;20099;-77
2023/07/12 03:29:53;;;;;;;7.97;2.53;;;;;;;-145.41;100.00;58600.66;5011329;28;20432;-76
2023/07/12 03:32:19;;;;;;;5.93;3.60;;;;;;;-145.41;100.00;58600.66;5011934;28;20448;-77
2023/07/12 03:34:44;;;;;;;7.43;2.92;;;;;;;-145.41;100.00;58600.66;5010815;28;20493;-76
2023/07/12 03:37:11;;;;;;;4.97;2.00;;;;;;;-145.41;100.00;58600.66;5007087;28;20048;-77
2023/07/12 03:39:37;;;;;;;6.10;2.58;;;;;;;-145.41;100.00;58600.66;5010949;28;20042;-77
2023/07/12 03:42:02;;;;;;;5.65;1.98;;;;;;;-145.41;100.00;58600.66;5011625;28;20064;-77
2023/07/12 03:44:27;;;;;;;8.60;2.95;;;;;;;-145.41;100.00;58600.66;5008986;28;20034;-77
2023/07/12 03:46:53;;;;;;;4.32;1.85;;;;;;;-145.41;100.00;58600.66;5011502;28;20034;-77
2023/07/12 03:49:18;;;;;;;8.55;2.03;;;;;;;-145.41;100.00;58600.66;5011195;28;20068;-77
2023/07/12 03:51:43;;;;;;;6.20;1.80;;;;;;;-145.41;100.00;58600.66;5010797;28;20045;-77
2023/07/12 03:54:09;;;;;;;3.80;1.80;;;;;;;-145.41;100.00;58600.66;5011538;28;20042;-77
2023/07/12 03:56:34;;;;;;;6.85;1.92;;;;;;;-145.41;100.00;58600.66;5011771;28;20038;-77
2023/07/12 03:58:59;;;;;;;8.15;1.90;;;;;;;-145.41;100.00;58600.66;5010843;28;20096;-77
2023/07/12 04:01:25;;;;;;;6.35;1.73;;;;;;;-145.41;100.00;58600.66;5011403;28;20041;-77
2023/07/12 04:03:50;;;;;;;5.07;2.08;;;;;;;-145.41;100.00;58600.66;5010493;28;20117;-77
2023/07/12 04:06:15;;;;;;;13.93;2.80;;;;;;;-145.41;100.00;58600.66;5011253;28;20160;-77
2023/07/12 04:08:41;;;;;;;4.47;1.63;;;;;;;-145.41;100.00;58600.66;5009128;28;20053;-78
2023/07/12 04:11:07;;;;;;;7.80;2.75;;;;;;;-145.41;100.00;58600.66;5010727;28;20087;-77
2023/07/12 04:13:32;;;;;;;4.25;1.58;;;;;;;-145.41;100.00;58600.66;5010163;28;20045;-77
2023/07/12 04:15:59;;;;;;;6.05;1.58;;;;;;;-145.41;100.00;58600.66;5007135;28;20101;-77
2023/07/12 04:18:26;;;;;;;9.05;1.98;;;;;;;-145.41;100.00;58600.66;5006125;28;20022;-77
2023/07/12 04:20:53;;;;;;;5.25;1.73;;;;;;;-145.41;100.00;58600.66;5003412;28;20124;-76
2023/07/12 04:23:18;;;;;;;5.47;1.92;;;;;;;-145.41;100.00;58600.66;5009534;28;20065;-76
2023/07/12 04:25:43;;;;;;;3.97;1.77;;;;;;;-145.41;100.00;58600.66;5010742;28;20072;-76
2023/07/12 04:28:09;;;;;;;8.88;2.50;;;;;;;-145.41;100.00;58600.66;5010286;28;20045;-77
2023/07/12 04:30:35;;;;;;;5.03;1.40;;;;;;;-145.41;100.00;58600.66;5010531;28;20038;-77
2023/07/12 04:33:01;;;;;;;11.30;2.67;;;;;;;-145.41;100.00;58600.66;5011053;28;20034;-77
2023/07/12 04:35:26;;;;;;;3.47;1.42;;;;;;;-145.41;100.00;58600.66;5008830;28;20034;-77
2023/07/12 04:37:51;;;;;;;5.70;2.58;;;;;;;-145.41;100.00;58600.66;5010647;28;20044;-77
2023/07/12 04:40:17;;;;;;;5.22;1.75;;;;;;;-145.41;100.00;58600.66;5006965;28;20157;-77
2023/07/12 04:42:44;;;;;;;7.43;2.30;;;;;;;-145.41;100.00;58600.66;5010510;28;20675;-77
2023/07/12 04:45:10;;;;;;;6.53;1.90;;;;;;;-145.41;100.00;58600.66;5010059;28;20113;-76
2023/07/12 04:47:36;;;;;;;4.03;2.00;;;;;;;-145.41;100.00;58600.66;5008962;28;20515;-77
2023/07/12 04:50:03;;;;;;;4.25;2.00;;;;;;;-145.41;100.00;58600.66;5005638;28;20034;-77
2023/07/12 04:52:29;;;;;;;5.30;2.80;;;;;;;-145.41;100.00;58600.66;5010182;28;20556;-77
2023/07/12 04:54:57;;;;;;;5.32;2.72;;;;;;;-145.41;100.00;58600.66;5010340;28;20116;-77
2023/07/12 04:57:23;;;;;;;7.30;2.63;;;;;;;-145.41;100.00;58600.66;5006240;28;20042;-77
2023/07/12 04:59:48;;;;;;;6.43;2.63;;;;;;;-145.41;100.00;58600.66;5009753;28;20096;-77
2023/07/12 05:02:14;;;;;;;9.73;2.45;;;;;;;-145.41;100.00;58600.66;5009624;28;20041;-77
2023/07/12 05:04:39;;;;;;;4.85;3.08;;;;;;;-145.41;100.00;58600.66;5010852;28;20115;-77
2023/07/12 05:07:09;;;;;;;4.00;2.17;;;;;;;-145.41;100.00;58600.66;5009977;28;20477;-77
2023/07/12 05:09:35;;;;;;;4.53;1.92;;;;;;;-145.41;100.00;58600.66;5008391;28;20113;-77
2023/07/12 05:12:00;;;;;;;6.43;1.65;;;;;;;-145.41;100.00;58600.66;5010791;28;20572;-77
2023/07/12 05:14:25;;;;;;;5.00;1.92;;;;;;;-145.41;100.00;58600.66;5010761;28;20081;-77
2023/07/12 05:16:51;;;;;;;4.75;1.30;;;;;;;-145.41;100.00;58600.66;5010418;28;20122;-77
2023/07/12 05:19:16;;;;;;;3.72;1.83;;;;;;;-145.41;100.00;58600.66;5009300;28;20112;-77
2023/07/12 05:21:41;;;;;;;6.68;2.30;;;;;;;-145.41;100.00;58600.66;5010150;28;20038;-77
2023/07/12 05:24:07;;;;;;;6.10;2.10;;;;;;;-145.41;100.00;58600.66;5010929;28;20108;-77
2023/07/12 05:26:33;;;;;;;4.05;1.50;;;;;;;-145.41;100.00;58600.66;5013994;28;20030;-77
2023/07/12 05:28:58;;;;;;;3.30;1.67;;;;;;;-145.41;100.00;58600.66;5013701;28;20030;-77
2023/07/12 05:31:24;;;;;;;5.82;2.33;;;;;;;-145.41;100.00;58600.66;5014656;28;20125;-77
2023/07/12 05:33:49;;;;;;;5.30;2.88;;;;;;;-145.41;100.00;58600.66;5014137;28;20037;-77
2023/07/12 05:36:15;;;;;;;3.75;1.55;;;;;;;-145.41;100.00;58600.66;5014240;28;20084;-77
2023/07/12 05:38:41;;;;;;;5.13;1.77;;;;;;;-145.41;100.00;58600.66;5013971;28;20033;-77
2023/07/12 05:41:06;;;;;;;6.25;1.70;;;;;;;-145.41;100.00;58600.66;5012660;28;20049;-77
2023/07/12 05:43:33;;;;;;;5.63;1.70;;;;;;;-145.41;100.00;58600.66;5011171;28;20081;-77
2023/07/12 05:45:59;;;;;;;5.28;1.80;;;;;;;-145.41;100.00;58600.66;5006640;28;20053;-77
2023/07/12 05:48:25;;;;;;;9.48;1.83;;;;;;;-145.41;100.00;58600.66;5011602;28;20033;-77
2023/07/12 05:50:58;;;;;;;4.53;2.15;;;;;;;-145.41;100.00;58600.66;5011536;28;20515;-77
2023/07/12 05:53:24;;;;;;;5.63;1.70;;;;;;;-145.41;100.00;58600.66;5012261;28;20397;-77
2023/07/12 05:55:57;;;;;;;2.15;1.30;;;;;;;-145.41;100.00;58600.66;5008987;28;20030;-77
2023/07/12 05:58:24;;;;;;;4.00;1.92;;;;;;;-145.41;100.00;58600.66;5013976;28;20038;-77
2023/07/12 06:00:58;;;;;;;2.90;1.60;;;;;;;-145.41;100.00;58600.66;5012222;28;20034;-77
2023/07/12 06:03:24;;;;;;;4.30;1.70;;;;;;;-145.41;100.00;58600.66;5011922;28;20038;-77
2023/07/12 06:05:50;;;;;;;4.47;1.63;;;;;;;-145.41;100.00;58600.66;5013850;28;20034;-77
2023/07/12 06:08:15;;;;;;;2.80;1.52;;;;;;;-145.41;100.00;58600.66;5012181;28;20038;-78
2023/07/12 06:10:44;;;;;;;3.38;1.55;;;;;;;-145.41;100.00;58600.66;5012982;28;20052;-77
2023/07/12 06:13:09;;;;;;;4.15;1.48;;;;;;;-145.41;100.00;58600.66;5010916;28;20120;-78
2023/07/12 06:15:35;;;;;;;5.95;1.60;;;;;;;-145.41;100.00;58600.66;5013421;28;20072;-77
2023/07/12 06:18:00;;;;;;;3.95;1.77;;;;;;;-145.41;100.00;58600.66;5013583;28;20385;-77
2023/07/12 06:20:25;;;;;;;6.45;1.42;;;;;;;-145.41;100.00;58600.66;5013086;28;20041;-77
2023/07/12 06:22:50;;;;;;;3.85;1.65;;;;;;;-145.41;100.00;58600.66;5012081;28;20034;-76
2023/07/12 06:25:16;;;;;;;5.05;2.30;;;;;;;-145.41;100.00;58600.66;5013402;28;20048;-77
2023/07/12 06:27:41;;;;;;;3.25;1.45;;;;;;;-145.41;100.00;58600.66;5013336;28;20042;-77
2023/07/12 06:30:07;;;;;;;3.83;1.60;;;;;;;-145.41;100.00;58600.66;5013016;28;20129;-77
2023/07/12 06:32:32;;;;;;;3.83;1.55;;;;;;;-145.41;100.00;58600.66;5013170;28;20041;-77
2023/07/12 06:34:58;;;;;;;3.70;1.30;;;;;;;-145.41;100.00;58600.66;5013687;28;20480;-77
2023/07/12 06:37:23;;;;;;;5.95;1.90;;;;;;;-145.41;100.00;58600.66;5012501;28;20033;-77
2023/07/12 06:39:49;;;;;;;4.38;1.77;;;;;;;-145.41;100.00;58600.66;5012556;28;20523;-77
2023/07/12 06:42:14;;;;;;;2.85;1.50;;;;;;;-145.41;100.00;58600.66;5013608;28;20080;-77
2023/07/12 06:44:39;;;;;;;5.20;2.22;;;;;;;-145.41;100.00;58600.66;5012826;28;20044;-77
2023/07/12 06:47:06;;;;;;;3.53;1.95;;;;;;;-145.41;100.00;58600.66;5013047;28;20452;-77
2023/07/12 06:49:32;;;;;;;3.08;1.40;;;;;;;-145.41;100.00;58600.66;5012736;28;20033;-77
2023/07/12 06:51:57;;;;;;;4.05;1.50;;;;;;;-145.41;100.00;58600.66;5012996;28;20500;-77
2023/07/12 06:54:23;;;;;;;4.72;2.63;;;;;;;-145.41;100.00;58600.66;5012001;28;20045;-77
2023/07/12 06:56:48;;;;;;;5.78;2.25;;;;;;;-145.41;100.00;58600.66;5012015;28;20037;-77
2023/07/12 06:59:13;;;;;;;2.67;1.60;;;;;;;-145.41;100.00;58600.66;5012677;28;20459;-77
2023/07/12 07:01:39;;;;;;;2.65;1.13;;;;;;;-145.41;100.00;58600.66;5012983;28;20107;-77
2023/07/12 07:04:05;;;;;;;3.13;1.48;;;;;;;-145.41;100.00;58600.66;5013149;28;20084;-78
2023/07/12 07:06:30;;;;;;;4.25;1.95;;;;;;;-145.41;100.00;58600.66;5010750;28;20042;-77
2023/07/12 07:08:56;;;;;;;2.58;1.60;;;;;;;-145.41;100.00;58600.66;5010396;28;20124;-77
2023/07/12 07:11:22;;;;;;;3.45;1.77;;;;;;;-145.41;100.00;58600.66;5012859;28;20042;-78
2023/07/12 07:13:50;;;;;;;4.45;1.73;;;;;;;-145.41;100.00;58600.66;5027471;28;20037;-77
2023/07/12 07:16:16;;;;;;;5.00;1.63;;;;;;;-145.41;100.00;58600.66;5010511;28;20022;-78
2023/07/12 07:18:42;;;;;;;2.65;1.42;;;;;;;-145.41;100.00;58600.66;5011348;28;20045;-78
2023/07/12 07:21:07;;;;;;;2.35;1.35;;;;;;;-145.41;100.00;58600.66;5012390;28;20456;-77
2023/07/12 07:23:33;;;;;;;3.92;1.40;;;;;;;-145.41;100.00;58600.66;5011152;28;20042;-77
2023/07/12 07:26:06;;;;;;;3.03;1.38;;;;;;;-145.41;100.00;58600.66;5012702;28;20045;-77
2023/07/12 07:28:32;;;;;;;2.92;1.40;;;;;;;-145.41;100.00;58600.66;5011519;28;20044;-77
2023/07/12 07:30:58;;;;;;;3.60;1.35;;;;;;;-145.41;100.00;58600.66;5011436;28;20030;-77
2023/07/12 07:33:24;;;;;;;3.15;1.50;;;;;;;-145.41;100.00;58600.66;5011837;28;20477;-77
2023/07/12 07:35:50;;;;;;;5.55;1.40;;;;;;;-145.41;100.00;58600.66;5009618;28;20036;-77
2023/07/12 07:38:15;;;;;;;4.70;1.60;;;;;;;-145.41;100.00;58600.66;5007966;28;20026;-78
2023/07/12 07:40:41;;;;;;;1.92;1.13;;;;;;;-145.41;100.00;58600.66;5012147;28;20041;-77
2023/07/12 07:43:10;;;;;;;4.50;1.60;;;;;;;-145.41;100.00;58600.66;5012449;28;20101;-77
2023/07/12 07:45:36;;;;;;;2.33;1.10;;;;;;;-145.41;100.00;58600.66;5012575;28;20037;-77
2023/07/12 07:48:02;;;;;;;3.42;1.60;;;;;;;-145.41;100.00;58600.66;5006395;28;20558;-77
2023/07/12 07:50:28;;;;;;;3.33;1.42;;;;;;;-145.41;100.00;58600.66;5011321;28;20092;-77
2023/07/12 07:52:53;;;;;;;2.03;1.10;;;;;;;-145.41;100.00;58600.66;5012463;28;20029;-77
2023/07/12 07:55:20;;;;;;;3.28;1.27;;;;;;;-145.41;100.00;58600.66;5012606;28;20041;-77
2023/07/12 07:57:45;;;;;;;6.72;1.80;;;;;;;-145.41;100.00;58600.66;5012402;28;20045;-78
2023/07/12 08:00:13;;;;;;;2.80;1.15;;;;;;;-145.41;100.00;58600.66;5011680;28;20437;-77
2023/07/12 08:02:43;;;;;;;2.95;1.15;;;;;;;-145.41;100.00;58600.66;5007375;28;20112;-77
2023/07/12 08:05:09;;;;;;;2.65;1.40;;;;;;;-145.41;100.00;58600.66;5011813;28;20116;-77
2023/07/12 08:07:39;;;;;;;3.35;1.50;;;;;;;-145.41;100.00;58600.66;5011457;28;20129;-77
2023/07/12 08:10:06;;;;;;;3.15;1.88;;;;;;;-145.41;100.00;58600.66;5011169;28;20034;-77
2023/07/12 08:12:32;;;;;;;4.50;1.70;;;;;;;-145.41;100.00;58600.66;5011769;28;20092;-77
2023/07/12 08:14:57;;;;;;;2.90;1.30;;;;;;;-145.41;100.00;58600.66;5009680;28;20030;-77
2023/07/12 08:17:23;;;;;;;4.72;1.40;;;;;;;-145.41;100.00;58600.66;5011178;28;20041;-77
2023/07/12 08:19:50;;;;;;;3.13;1.35;;;;;;;-145.41;100.00;58600.66;5010673;28;20033;-77
2023/07/12 08:22:19;;;;;;;2.90;1.58;;;;;;;-145.41;100.00;58600.66;5011985;28;20041;-77
2023/07/12 08:24:45;;;;;;;5.03;2.03;;;;;;;-145.41;100.00;58600.66;5012161;28;20040;-77
2023/07/12 08:27:11;;;;;;;4.00;1.50;;;;;;;-145.41;100.00;58600.66;5012297;28;20060;-77
2023/07/12 08:29:37;;;;;;;4.63;2.10;;;;;;;-145.41;100.00;58600.66;5011702;28;20562;-77
2023/07/12 08:32:02;;;;;;;3.25;1.60;;;;;;;-145.41;100.00;58600.66;5012351;28;20034;-77
2023/07/12 08:34:28;;;;;;;3.90;1.65;;;;;;;-145.41;100.00;58600.66;5012059;28;20076;-77
2023/07/12 08:36:53;;;;;;;5.22;1.90;;;;;;;-145.41;100.00;58600.66;5008570;28;20030;-78
2023/07/12 08:39:18;;;;;;;3.60;1.95;;;;;;;-145.41;100.00;58600.66;5010305;28;20038;-77
2023/07/12 08:41:44;;;;;;;5.60;2.45;;;;;;;-145.41;100.00;58600.66;5011883;28;20061;-77
2023/07/12 08:44:13;;;;;;;5.45;2.22;;;;;;;-145.41;100.00;58600.66;5010437;28;20046;-77
2023/07/12 08:49:21;;;;;;;4.50;2.10;;;;;;;-145.41;100.00;58600.66;1467517;26;20094;-75
2023/07/12 08:51:47;;;;;;;5.15;2.58;;;;;;;-145.41;100.00;58600.66;4989959;28;20030;-76
2023/07/12 08:54:22;;;;;;;7.85;2.60;;;;;;;-145.41;100.00;58600.66;4991230;28;20037;-76
2023/07/12 08:56:49;;;;;;;5.93;2.80;;;;;;;-145.41;100.00;58600.66;4978692;28;20097;-76
2023/07/12 08:59:16;;;;;;;4.60;2.58;;;;;;;-145.41;100.00;58600.66;4977494;28;20034;-76
2023/07/12 09:01:48;;;;;;;4.13;2.33;;;;;;;-145.41;100.00;58600.66;4994390;28;20089;-76
2023/07/12 09:04:21;;;;;;;4.97;2.92;;;;;;;-145.41;100.00;58600.66;4990711;28;20178;-76
2023/07/12 09:06:50;;;;;;;5.07;2.55;;;;;;;-145.41;100.00;58600.66;4977317;28;20430;-76
2023/07/12 09:09:17;;;;;;;3.65;2.13;;;;;;;-145.41;100.00;58600.66;4981372;28;20049;-76
2023/07/12 09:11:43;;;;;;;4.47;2.50;;;;;;;-145.41;100.00;58600.66;4987229;28;20065;-76
2023/07/12 09:14:17;;;;;;;4.78;2.90;;;;;;;-145.41;100.00;58600.66;4986190;28;20668;-76
2023/07/12 09:16:46;;;;;;;5.53;2.65;;;;;;;-145.41;100.00;58600.66;4980184;28;20225;-76
2023/07/12 09:19:15;;;;;;;4.55;2.47;;;;;;;-145.41;100.00;58600.66;4980765;28;20038;-75
2023/07/12 09:21:45;;;;;;;6.63;2.50;;;;;;;-145.41;100.00;58600.66;4980816;28;20041;-76
2023/07/12 09:24:14;;;;;;;5.55;2.70;;;;;;;-145.41;100.00;58600.66;4980740;28;20054;-76
2023/07/12 09:26:40;;;;;;;10.73;3.42;;;;;;;-145.41;100.00;58600.66;4982508;28;20046;-76
2023/07/12 09:29:20;;;;;;;5.47;2.65;;;;;;;-145.41;100.00;58600.66;4987994;28;20045;-75
2023/07/12 09:31:46;;;;;;;4.77;3.07;;;;;;;-145.41;100.00;58600.66;4980115;28;20070;-76
2023/07/12 09:34:22;;;;;;;4.60;2.63;;;;;;;-145.41;100.00;58600.66;4985983;28;20325;-75
2023/07/12 09:36:55;;;;;;;3.88;2.35;;;;;;;-145.41;100.00;58600.66;4983589;28;20026;-76
2023/07/12 09:39:20;;;;;;;6.30;2.25;;;;;;;-145.41;100.00;58600.66;4979200;28;20045;-76
2023/07/12 09:41:50;;;;;;;4.10;2.50;;;;;;;-145.41;100.00;58600.66;4986184;28;20038;-76
2023/07/12 09:44:16;;;;;;;5.75;2.88;;;;;;;-145.41;100.00;58600.66;4984409;28;20105;-76
2023/07/12 09:47:07;;;;;;;5.43;2.83;;;;;;;-145.41;100.00;58600.66;4978941;28;20482;-76
2023/07/12 09:49:51;;;;;;;6.13;2.83;;;;;;;-145.41;100.00;58600.66;4980840;28;20424;-76
2023/07/12 09:52:27;;;;;;;6.53;3.05;;;;;;;-145.41;100.00;58600.66;4975192;28;20037;-76
2023/07/12 09:55:00;;;;;;;4.53;2.47;;;;;;;-145.41;100.00;58600.66;4990508;28;20366;-76
2023/07/12 09:57:45;;;;;;;5.03;3.00;;;;;;;-145.41;100.00;58600.66;4979193;28;20508;-76
2023/07/12 10:00:20;;;;;;;5.57;3.00;;;;;;;-145.41;100.00;58600.66;4978265;28;20035;-76
2023/07/12 10:03:18;;;;;;;4.00;2.72;;;;;;;-145.41;100.00;58600.66;4980878;28;20031;-75
2023/07/12 10:06:14;;;;;;;6.45;3.10;;;;;;;-145.41;100.00;58600.66;4976442;28;20038;-75
2023/07/12 10:09:38;;;;;;;5.85;2.65;;;;;;;-145.41;100.00;58600.66;4979064;28;20042;-74
2023/07/12 10:12:46;;;;;;;6.20;2.47;;;;;;;-145.41;100.00;58600.66;4958292;28;20070;-75
2023/07/12 10:19:50;;;;;;;4.68;2.75;;;;;;;-145.41;100.00;58600.66;4992131;28;20072;-74
2023/07/12 10:22:47;;;;;;;4.65;3.13;;;;;;;-145.41;100.00;58600.66;4920560;29;20079;-76
2023/07/12 10:28:22;;;;;;;7.03;3.58;;;;;;;-145.41;100.00;58600.66;4953600;28;20054;-76
2023/07/12 10:31:37;;;;;;;7.10;3.65;;;;;;;-145.41;100.00;58600.66;4950151;29;20447;-77
2023/07/12 10:34:22;;;;;;;4.95;3.10;;;;;;;-145.41;100.00;58600.66;4953728;29;20031;-76
2023/07/12 10:36:51;;;;;;;5.88;3.13;;;;;;;-145.41;100.00;58600.66;4939047;29;20122;-74
2023/07/12 10:39:16;;;;;;;6.85;3.83;;;;;;;-145.41;100.00;58600.66;4932962;29;20055;-73
2023/07/12 10:41:50;;;;;;;8.35;4.95;;;;;;;-145.41;100.00;58600.66;4935875;29;20122;-74
2023/07/12 10:44:28;;;;;;;4.82;3.30;;;;;;;-145.41;100.00;58600.66;4933543;29;20065;-74
2023/07/12 10:47:01;;;;;;;9.55;4.05;;;;;;;-145.41;100.00;58600.66;4934163;29;20091;-74
2023/07/12 10:49:43;;;;;;;6.88;3.80;;;;;;;-145.41;100.00;58600.66;4933589;28;20032;-73
2023/07/12 10:52:12;;;;;;;7.60;3.70;;;;;;;-145.41;100.00;58600.66;4941168;29;20030;-76
2023/07/12 10:54:47;;;;;;;4.82;3.55;;;;;;;-145.41;100.00;58600.66;4934718;29;20043;-74
2023/07/12 10:57:18;;;;;;;7.20;4.10;;;;;;;-145.41;100.00;58600.66;4935357;28;20403;-77
2023/07/12 10:59:45;;;;;;;6.80;4.20;;;;;;;-145.41;100.00;58600.66;4933891;29;20039;-76
2023/07/12 11:02:25;;;;;;;5.32;3.50;;;;;;;-145.41;100.00;58600.66;4934324;29;20039;-77
2023/07/12 11:04:51;;;;;;;5.63;3.55;;;;;;;-145.41;100.00;58600.66;4933110;29;20027;-76
2023/07/12 11:07:16;;;;;;;5.70;3.67;;;;;;;-145.41;100.00;58600.66;4931507;29;20039;-76
2023/07/12 11:09:47;;;;;;;8.15;3.33;;;;;;;-145.41;100.00;58600.66;4932304;29;20036;-76
2023/07/12 11:12:38;;;;;;;5.28;3.78;;;;;;;-145.41;100.00;58600.66;4932926;29;20035;-77
2023/07/12 11:15:06;;;;;;;4.82;3.13;;;;;;;-145.41;100.00;58600.66;4930133;29;20083;-77
2023/07/12 11:18:00;;;;;;;6.72;3.50;;;;;;;-145.41;100.00;58600.66;4934909;29;20043;-76
2023/07/12 11:20:30;;;;;;;5.55;3.50;;;;;;;-145.41;100.00;58600.66;4943945;29;20040;-76
2023/07/12 11:22:57;;;;;;;7.80;3.40;;;;;;;-145.41;100.00;58600.66;4934858;29;20134;-76